XBG weather

Bogande Airport
Bogande, Gnagna, Burkina Faso

Public forecast

Using degrees Celsius for public forecast. Weather courtesy of forecast.io.

METAR (pilot weather report)

Report is more than 6 hours old.

Closest report is Dori Airport, 63.5 nm (117.7 km) N. Retrieved 2009/09/21 17:00 UTC (10 years ago):

DFEE 211700Z 14002KT 9/9 FEW020 BKN260 34/21

TAF (pilot weather forecast)

Forecast is more than 12 hours old.

Closest forecast is Ouagadougou Airport, 87.4 nm (161.9 km) WSW. Retrieved 2019/03/25 00:21 UTC (24 hours ago):

TAF TAF DFFD 252300Z 2600/2706 18008KT 8000 NSC